createdAt,value
2019-02-25T00:04:21.756Z,0.48
2019-02-25T00:09:46.195Z,0.35
2019-02-25T00:15:10.280Z,0.23
2019-02-25T00:20:34.811Z,0.09
2019-02-25T00:25:58.691Z,-0.05
2019-02-25T00:31:23.337Z,-0.05
2019-02-25T00:36:48.087Z,-0.08
2019-02-25T00:42:12.572Z,-0.10
2019-02-25T00:47:36.609Z,0.09
2019-02-25T00:53:00.601Z,0.46
2019-02-25T00:58:24.414Z,0.54
2019-02-25T01:03:47.994Z,0.74
2019-02-25T01:09:11.821Z,0.78
2019-02-25T01:14:36.504Z,0.62
2019-02-25T01:20:00.927Z,0.46
2019-02-25T01:25:26.681Z,0.15
2019-02-25T01:30:51.078Z,-0.05
2019-02-25T01:36:14.754Z,-0.09
2019-02-25T01:41:38.589Z,-0.24
2019-02-25T01:47:02.831Z,-0.38
2019-02-25T01:52:26.524Z,-0.52
2019-02-25T01:57:52.400Z,-0.60
2019-02-25T02:03:17.109Z,-0.74
2019-02-25T02:08:41.847Z,-0.86
2019-02-25T02:14:06.810Z,-0.98
2019-02-25T02:19:32.064Z,-0.60
2019-02-25T02:24:56.694Z,-0.61
2019-02-25T02:30:21.304Z,-0.65
2019-02-25T02:35:45.915Z,-0.85
2019-02-25T02:41:10.541Z,-0.87
2019-02-25T02:47:23.233Z,-0.95
2019-02-25T02:52:46.973Z,-0.53
2019-02-25T02:58:10.836Z,-0.40
2019-02-25T03:03:38.300Z,-0.46
2019-02-25T03:09:04.757Z,-0.45
2019-02-25T03:14:30.899Z,-0.50
2019-02-25T03:19:54.888Z,-0.57
2019-02-25T03:25:19.817Z,-0.65
2019-02-25T03:30:43.218Z,-0.73
2019-02-25T03:36:07.768Z,-0.86
2019-02-25T03:41:32.806Z,-0.96
2019-02-25T03:46:57.641Z,-1.08
2019-02-25T03:52:21.897Z,-1.13
2019-02-25T03:57:46.458Z,-0.95
2019-02-25T04:03:10.981Z,-1.09
2019-02-25T04:08:35.598Z,-1.16
2019-02-25T04:14:00.281Z,-1.33
2019-02-25T04:19:24.773Z,-1.43
2019-02-25T04:24:49.686Z,-1.44
2019-02-25T04:30:15.213Z,-1.43
2019-02-25T04:35:39.316Z,-1.51
2019-02-25T04:41:03.720Z,-1.48
2019-02-25T04:46:28.088Z,-1.84
2019-02-25T04:51:52.993Z,-1.77
2019-02-25T04:57:16.766Z,-1.74
2019-02-25T05:02:40.688Z,-1.61
2019-02-25T05:08:06.654Z,-1.60
2019-02-25T05:13:31.278Z,-1.54
2019-02-25T05:18:55.491Z,-1.66
2019-02-25T05:24:19.163Z,-1.80
2019-02-25T05:29:42.856Z,-1.72
2019-02-25T05:35:08.691Z,-1.89
2019-02-25T05:40:34.900Z,-1.92
2019-02-25T05:45:59.675Z,-1.98
2019-02-25T05:51:23.813Z,-1.88
2019-02-25T05:56:48.494Z,-2.04
2019-02-25T06:02:13.282Z,-2.15
2019-02-25T06:07:37.806Z,-1.82
2019-02-25T06:13:02.237Z,-1.76
2019-02-25T06:18:26.974Z,-1.75
2019-02-25T06:23:51.792Z,-1.59
2019-02-25T06:29:16.523Z,-1.42
2019-02-25T06:34:40.128Z,-1.14
2019-02-25T06:40:05.402Z,-0.84
2019-02-25T06:45:31.154Z,-0.56
2019-02-25T06:50:56.775Z,-0.32
2019-02-25T06:56:21.421Z,-0.06
2019-02-25T07:01:45.079Z,0.39
2019-02-25T07:07:16.514Z,1.07
2019-02-25T07:13:02.615Z,1.85
2019-02-25T07:18:38.135Z,2.80
2019-02-25T07:24:15.205Z,3.33
2019-02-25T07:30:02.296Z,3.23
2019-02-25T07:35:46.392Z,3.69
2019-02-25T07:41:33.781Z,3.97
2019-02-25T07:47:03.287Z,4.20
2019-02-25T07:52:36.039Z,4.77
2019-02-25T07:58:08.370Z,4.86
2019-02-25T08:03:45.124Z,4.77
2019-02-25T08:09:25.609Z,4.50
2019-02-25T08:15:14.874Z,4.78
2019-02-25T08:20:58.301Z,4.74
2019-02-25T08:26:33.072Z,5.03
2019-02-25T08:32:09.729Z,5.49
2019-02-25T08:38:02.788Z,5.75
2019-02-25T08:43:45.688Z,6.23
2019-02-25T08:49:13.853Z,6.52
2019-02-25T08:54:37.686Z,6.73
2019-02-25T09:00:02.084Z,6.86
2019-02-25T09:05:27.497Z,7.47
2019-02-25T09:10:52.430Z,7.59
2019-02-25T09:16:17.215Z,8.02
2019-02-25T09:21:41.029Z,8.63
2019-02-25T09:27:05.427Z,9.58
2019-02-25T09:32:31.001Z,10.94
2019-02-25T09:37:55.746Z,11.33
2019-02-25T09:43:19.641Z,11.55
2019-02-25T09:48:43.714Z,12.04
2019-02-25T09:54:07.453Z,12.33
2019-02-25T09:59:32.009Z,12.70
2019-02-25T10:04:57.444Z,13.53
2019-02-25T10:10:22.896Z,13.03
2019-02-25T10:15:46.737Z,14.91
2019-02-25T10:21:11.205Z,15.83
2019-02-25T10:26:35.625Z,14.07
2019-02-25T10:32:00.109Z,16.12
2019-02-25T10:37:24.915Z,15.40
2019-02-25T10:42:49.151Z,14.82
2019-02-25T10:48:13.058Z,16.34
2019-02-25T10:53:37.554Z,17.06
2019-02-25T10:59:03.604Z,17.95
2019-02-25T11:04:27.241Z,19.03
2019-02-25T11:09:57.260Z,19.15
2019-02-25T11:15:21.048Z,17.77
2019-02-25T11:20:45.680Z,17.43
2019-02-25T11:26:09.433Z,17.98
2019-02-25T11:31:34.077Z,19.49
2019-02-25T11:36:59.521Z,18.09
2019-02-25T11:42:23.595Z,18.04
2019-02-25T11:47:48.802Z,18.64
2019-02-25T11:53:13.793Z,16.15
2019-02-25T11:58:39.160Z,17.57
2019-02-25T12:04:02.936Z,18.97
2019-02-25T12:09:26.823Z,16.59
2019-02-25T12:14:51.385Z,17.76
2019-02-25T12:20:16.219Z,18.79
2019-02-25T12:25:40.947Z,18.53
2019-02-25T12:31:04.559Z,18.27
2019-02-25T12:36:29.168Z,15.99
2019-02-25T12:41:52.896Z,17.00
2019-02-25T12:47:16.798Z,16.80
2019-02-25T12:52:41.235Z,18.77
2019-02-25T12:58:05.744Z,18.86
2019-02-25T13:03:29.390Z,18.81
2019-02-25T13:08:53.912Z,18.23
2019-02-25T13:14:18.691Z,18.98
2019-02-25T13:19:43.858Z,18.66
2019-02-25T13:25:10.585Z,18.66
2019-02-25T13:30:35.572Z,17.16
2019-02-25T13:36:00.084Z,16.47
2019-02-25T13:41:24.003Z,17.14
2019-02-25T13:46:47.920Z,17.85
2019-02-25T13:52:12.456Z,16.83
2019-02-25T13:57:36.922Z,16.91
2019-02-25T14:03:03.365Z,17.07
2019-02-25T14:08:28.272Z,17.77
2019-02-25T14:13:52.404Z,18.62
2019-02-25T14:19:17.572Z,19.01
2019-02-25T14:24:42.212Z,19.80
2019-02-25T14:30:09.389Z,18.24
2019-02-25T14:35:34.245Z,17.76
2019-02-25T14:40:58.773Z,18.01
2019-02-25T14:46:24.960Z,18.32
2019-02-25T14:51:49.196Z,18.32
2019-02-25T14:57:13.789Z,18.13
2019-02-25T15:02:39.014Z,18.30
2019-02-25T15:08:04.379Z,16.57
2019-02-25T15:13:30.022Z,16.63
2019-02-25T15:18:53.575Z,16.85
2019-02-25T15:24:19.057Z,16.92
2019-02-25T15:29:44.714Z,16.85
2019-02-25T15:35:09.543Z,16.45
2019-02-25T15:40:35.529Z,17.92
2019-02-25T15:46:00.177Z,16.46
2019-02-25T15:51:23.805Z,16.62
2019-02-25T15:56:48.339Z,16.15
2019-02-25T16:02:14.214Z,16.09
2019-02-25T16:07:40.105Z,15.36
2019-02-25T16:13:09.147Z,14.60
2019-02-25T16:18:30.448Z,14.12
2019-02-25T16:23:54.756Z,13.88
2019-02-25T16:29:19.388Z,13.23
2019-02-25T16:34:44.298Z,12.53
2019-02-25T16:40:10.620Z,11.98
2019-02-25T16:45:36.796Z,11.51
2019-02-25T16:51:00.595Z,11.36
2019-02-25T16:56:25.482Z,11.05
2019-02-25T17:01:50.039Z,10.68
2019-02-25T17:07:16.099Z,10.54
2019-02-25T17:12:40.867Z,10.37
2019-02-25T17:18:05.657Z,10.12
2019-02-25T17:23:30.661Z,9.87
2019-02-25T17:28:55.612Z,9.59
2019-02-25T17:34:20.991Z,9.59
2019-02-25T17:39:45.248Z,9.59
2019-02-25T17:45:11.909Z,9.52
2019-02-25T17:50:37.159Z,9.39
2019-02-25T17:56:02.201Z,9.41
2019-02-25T18:01:27.986Z,9.38
2019-02-25T18:06:52.988Z,9.30
2019-02-25T18:12:18.897Z,9.32
2019-02-25T18:17:44.568Z,9.28
2019-02-25T18:23:09.487Z,9.27
2019-02-25T18:28:34.924Z,9.12
2019-02-25T18:33:59.458Z,9.05
2019-02-25T18:39:25.105Z,9.07
2019-02-25T18:44:49.602Z,9.09
2019-02-25T18:50:19.452Z,9.20
2019-02-25T18:55:43.229Z,9.24
2019-02-25T19:01:08.976Z,9.11
2019-02-25T19:06:32.484Z,8.94
2019-02-25T19:11:57.974Z,8.70
2019-02-25T19:17:23.153Z,8.18
2019-02-25T19:22:47.569Z,8.20
2019-02-25T19:28:16.500Z,8.07
2019-02-25T19:33:37.787Z,8.08
2019-02-25T19:39:04.947Z,8.02
2019-02-25T19:44:29.801Z,8.12
2019-02-25T19:49:53.759Z,8.12
2019-02-25T19:55:23.267Z,7.96
2019-02-25T20:00:50.612Z,7.86
2019-02-25T20:06:15.942Z,7.76
2019-02-25T20:11:38.934Z,7.61
2019-02-25T20:17:03.399Z,7.58
2019-02-25T20:22:29.730Z,7.44
2019-02-25T20:27:55.203Z,7.34
2019-02-25T20:33:19.346Z,7.07
2019-02-25T20:38:43.198Z,6.74
2019-02-25T20:44:07.864Z,6.55
2019-02-25T20:49:32.426Z,6.32
2019-02-25T20:54:58.268Z,6.30
2019-02-25T21:00:22.457Z,6.32
2019-02-25T21:05:47.257Z,6.24
2019-02-25T21:11:13.508Z,6.45
2019-02-25T21:16:37.906Z,6.61
2019-02-25T21:22:04.298Z,6.57
2019-02-25T21:27:30.109Z,6.47
2019-02-25T21:32:54.388Z,6.41
2019-02-25T21:38:19.542Z,6.32
2019-02-25T21:43:47.312Z,6.11
2019-02-25T21:49:11.251Z,6.00
2019-02-25T21:54:34.970Z,5.86
2019-02-25T22:00:01.019Z,5.84
2019-02-25T22:05:25.031Z,5.68
2019-02-25T22:10:49.593Z,5.55
2019-02-25T22:16:13.583Z,5.44
2019-02-25T22:21:37.344Z,5.41
2019-02-25T22:27:01.710Z,5.33
2019-02-25T22:32:25.854Z,5.33
2019-02-25T22:37:52.671Z,5.30
2019-02-25T22:43:16.411Z,5.25
2019-02-25T22:48:43.319Z,5.20
2019-02-25T22:54:10.126Z,5.12
2019-02-25T22:59:35.515Z,5.16
2019-02-25T23:04:59.277Z,5.08
2019-02-25T23:10:24.297Z,5.04
2019-02-25T23:15:50.821Z,5.05
2019-02-25T23:21:23.469Z,4.93
2019-02-25T23:26:41.107Z,4.92
2019-02-25T23:32:05.877Z,4.92
2019-02-25T23:37:29.943Z,4.83
2019-02-25T23:42:53.810Z,4.83
2019-02-25T23:48:18.735Z,4.82
2019-02-25T23:53:43.242Z,4.72
2019-02-25T23:59:10.735Z,4.73
